createdAt,value
2022-11-13T00:00:00.890Z,39
2022-11-13T00:02:31.953Z,36
2022-11-13T00:05:16.443Z,32
2022-11-13T00:08:00.784Z,32
2022-11-13T00:10:35.474Z,32
2022-11-13T00:13:06.003Z,32
2022-11-13T00:15:41.296Z,37
2022-11-13T00:18:17.014Z,33
2022-11-13T00:20:47.752Z,36
2022-11-13T00:23:18.295Z,32
2022-11-13T00:25:49.669Z,36
2022-11-13T00:28:19.640Z,31
2022-11-13T00:30:50.150Z,36
2022-11-13T00:33:31.962Z,32
2022-11-13T00:35:50.269Z,38
2022-11-13T00:38:23.189Z,32
2022-11-13T00:41:00.191Z,37
2022-11-13T00:43:30.804Z,34
2022-11-13T00:46:01.744Z,35
2022-11-13T00:48:32.863Z,32
2022-11-13T00:51:03.118Z,38
2022-11-13T00:53:34.821Z,37
2022-11-13T00:56:06.099Z,37
2022-11-13T00:58:36.677Z,40
2022-11-13T01:01:07.411Z,40
2022-11-13T01:03:39.608Z,35
2022-11-13T01:06:13.921Z,36
2022-11-13T01:08:43.955Z,28
2022-11-13T01:11:15.176Z,37
2022-11-13T01:13:46.835Z,39
2022-11-13T01:16:17.664Z,40
2022-11-13T01:18:49.132Z,37
2022-11-13T01:21:24.902Z,33
2022-11-13T01:24:00.498Z,36
2022-11-13T01:26:31.167Z,36
2022-11-13T01:28:59.901Z,37
2022-11-13T01:31:28.853Z,36
2022-11-13T01:33:59.233Z,39
2022-11-13T01:36:30.135Z,40
2022-11-13T01:39:00.825Z,38
2022-11-13T01:41:31.814Z,32
2022-11-13T01:44:03.840Z,36
2022-11-13T01:46:34.548Z,38
2022-11-13T01:49:06.653Z,36
2022-11-13T01:51:36.732Z,36
2022-11-13T01:54:07.770Z,32
2022-11-13T01:56:38.648Z,36
2022-11-13T01:59:09.485Z,44
2022-11-13T02:01:40.196Z,40
2022-11-13T02:04:10.639Z,44
2022-11-13T02:06:39.576Z,37
2022-11-13T02:09:08.244Z,40
2022-11-13T02:11:38.339Z,41
2022-11-13T02:14:10.842Z,42
2022-11-13T02:16:41.154Z,45
2022-11-13T02:19:14.086Z,44
2022-11-13T02:21:46.137Z,40
2022-11-13T02:24:17.151Z,41
2022-11-13T02:26:49.152Z,43
2022-11-13T02:29:19.681Z,43
2022-11-13T02:31:50.380Z,41
2022-11-13T02:34:21.373Z,40
2022-11-13T02:36:53.017Z,40
2022-11-13T02:39:25.742Z,40
2022-11-13T02:41:56.970Z,41
2022-11-13T02:44:28.753Z,37
2022-11-13T02:46:58.680Z,40
2022-11-13T02:49:29.585Z,40
2022-11-13T02:52:02.189Z,41
2022-11-13T02:54:33.514Z,36
2022-11-13T02:57:04.632Z,40
2022-11-13T02:59:34.955Z,37
2022-11-13T03:02:05.686Z,40
2022-11-13T03:05:05.100Z,36
2022-11-13T03:07:06.122Z,36
2022-11-13T03:09:35.333Z,36
2022-11-13T03:12:06.044Z,40
2022-11-13T03:14:36.479Z,36
2022-11-13T03:17:08.432Z,37
2022-11-13T03:19:38.750Z,38
2022-11-13T03:22:09.751Z,37
2022-11-13T03:24:40.421Z,36
2022-11-13T03:27:11.766Z,39
2022-11-13T03:29:42.893Z,36
2022-11-13T03:32:13.861Z,39
2022-11-13T03:34:45.261Z,39
2022-11-13T03:37:15.845Z,36
2022-11-13T03:39:47.016Z,39
2022-11-13T03:42:18.261Z,40
2022-11-13T03:44:49.241Z,40
2022-11-13T03:47:20.071Z,41
2022-11-13T03:49:52.357Z,39
2022-11-13T03:52:22.807Z,36
2022-11-13T03:54:53.515Z,37
2022-11-13T03:57:22.530Z,36
2022-11-13T03:59:53.403Z,33
2022-11-13T04:02:24.367Z,36
2022-11-13T04:04:55.388Z,39
2022-11-13T04:07:26.180Z,36
2022-11-13T04:09:58.459Z,40
2022-11-13T04:12:30.622Z,38
2022-11-13T04:15:00.879Z,33
2022-11-13T04:17:32.532Z,40
2022-11-13T04:20:04.921Z,36
2022-11-13T04:22:35.820Z,36
2022-11-13T04:25:06.580Z,32
2022-11-13T04:27:35.931Z,34
2022-11-13T04:30:07.162Z,36
2022-11-13T04:32:37.491Z,40
2022-11-13T04:35:09.047Z,36
2022-11-13T04:37:38.294Z,35
2022-11-13T04:40:09.603Z,33
2022-11-13T04:42:40.967Z,27
2022-11-13T04:45:12.313Z,34
2022-11-13T04:47:42.920Z,36
2022-11-13T04:50:14.689Z,33
2022-11-13T04:52:45.162Z,28
2022-11-13T04:55:16.503Z,37
2022-11-13T04:57:48.456Z,36
2022-11-13T05:00:20.642Z,34
2022-11-13T05:02:52.697Z,33
2022-11-13T05:05:26.067Z,35
2022-11-13T05:07:57.052Z,52
2022-11-13T05:10:30.681Z,37
2022-11-13T05:13:00.005Z,36
2022-11-13T05:15:33.072Z,36
2022-11-13T05:18:03.879Z,44
2022-11-13T05:20:34.911Z,44
2022-11-13T05:23:05.563Z,45
2022-11-13T05:25:36.150Z,36
2022-11-13T05:28:06.582Z,40
2022-11-13T05:30:37.421Z,40
2022-11-13T05:33:08.303Z,44
2022-11-13T05:35:40.336Z,44
2022-11-13T05:38:10.592Z,45
2022-11-13T05:40:48.432Z,40
2022-11-13T05:43:19.276Z,44
2022-11-13T05:45:50.172Z,40
2022-11-13T05:48:23.056Z,48
2022-11-13T05:50:53.639Z,45
2022-11-13T05:53:24.234Z,40
2022-11-13T05:55:55.373Z,48
2022-11-13T05:58:26.423Z,44
2022-11-13T06:00:56.636Z,48
2022-11-13T06:03:27.045Z,46
2022-11-13T06:05:58.205Z,43
2022-11-13T06:08:29.361Z,38
2022-11-13T06:11:00.336Z,38
2022-11-13T06:13:31.178Z,47
2022-11-13T06:16:03.481Z,40
2022-11-13T06:18:37.947Z,40
2022-11-13T06:21:08.696Z,44
2022-11-13T06:23:40.707Z,44
2022-11-13T06:26:11.884Z,40
2022-11-13T06:28:43.024Z,40
2022-11-13T06:31:14.921Z,50
2022-11-13T06:33:47.459Z,36
2022-11-13T06:36:18.725Z,38
2022-11-13T06:38:49.996Z,37
2022-11-13T06:41:20.529Z,40
2022-11-13T06:43:52.470Z,37
2022-11-13T06:46:21.725Z,40
2022-11-13T06:48:55.963Z,40
2022-11-13T06:51:26.467Z,40
2022-11-13T06:53:55.005Z,41
2022-11-13T06:56:25.579Z,40
2022-11-13T06:58:56.695Z,44
2022-11-13T07:01:30.000Z,43
2022-11-13T07:04:00.570Z,42
2022-11-13T07:06:35.006Z,36
2022-11-13T07:09:02.981Z,39
2022-11-13T07:11:33.747Z,40
2022-11-13T07:14:05.783Z,42
2022-11-13T07:16:56.563Z,36
2022-11-13T07:19:07.723Z,41
2022-11-13T07:21:38.893Z,41
2022-11-13T07:24:10.448Z,41
2022-11-13T07:26:38.650Z,54
2022-11-13T07:29:10.653Z,58
2022-11-13T07:31:44.706Z,36
2022-11-13T07:34:15.270Z,36
2022-11-13T07:36:47.843Z,40
2022-11-13T07:39:18.418Z,44
2022-11-13T07:41:48.928Z,40
2022-11-13T07:44:40.399Z,40
2022-11-13T07:46:51.688Z,49
2022-11-13T07:49:20.767Z,36
2022-11-13T07:51:51.912Z,40
2022-11-13T07:54:22.633Z,40
2022-11-13T07:56:53.363Z,40
2022-11-13T07:59:24.370Z,43
2022-11-13T08:01:56.775Z,37
2022-11-13T08:04:27.363Z,36
2022-11-13T08:06:58.856Z,34
2022-11-13T08:09:29.441Z,36
2022-11-13T08:11:59.013Z,36
2022-11-13T08:14:28.984Z,36
2022-11-13T08:17:00.206Z,36
2022-11-13T08:19:30.951Z,32
2022-11-13T08:22:02.160Z,33
2022-11-13T08:24:32.400Z,36
2022-11-13T08:27:03.061Z,36
2022-11-13T08:29:33.844Z,40
2022-11-13T08:32:05.457Z,38
2022-11-13T08:34:36.089Z,37
2022-11-13T08:37:07.062Z,35
2022-11-13T08:39:37.308Z,29
2022-11-13T08:42:10.211Z,36
2022-11-13T08:44:40.595Z,35
2022-11-13T08:47:11.213Z,36
2022-11-13T08:49:42.355Z,33
2022-11-13T08:52:16.138Z,32
2022-11-13T08:54:47.019Z,36
2022-11-13T08:57:16.495Z,29
2022-11-13T08:59:47.547Z,32
2022-11-13T09:02:20.032Z,30
2022-11-13T09:04:53.228Z,28
2022-11-13T09:07:27.275Z,31
2022-11-13T09:09:55.368Z,30
2022-11-13T09:12:29.624Z,27
2022-11-13T09:15:00.686Z,32
2022-11-13T09:17:33.563Z,24
2022-11-13T09:20:06.061Z,30
2022-11-13T09:22:35.904Z,32
2022-11-13T09:25:06.981Z,33
2022-11-13T09:27:36.165Z,24
2022-11-13T09:30:08.358Z,32
2022-11-13T09:32:39.747Z,24
2022-11-13T09:35:09.460Z,26
2022-11-13T09:37:39.808Z,27
2022-11-13T09:40:11.960Z,32
2022-11-13T09:42:45.502Z,30
2022-11-13T09:45:16.719Z,28
2022-11-13T09:47:46.092Z,25
2022-11-13T09:50:18.188Z,27
2022-11-13T09:52:49.528Z,32
2022-11-13T09:55:21.401Z,100
2022-11-13T09:57:52.399Z,24
2022-11-13T10:00:23.276Z,33
2022-11-13T10:02:54.474Z,28
2022-11-13T10:05:25.169Z,24
2022-11-13T10:07:54.757Z,25
2022-11-13T10:10:25.650Z,32
2022-11-13T10:12:56.792Z,28
2022-11-13T10:15:27.892Z,24
2022-11-13T10:17:59.668Z,24
2022-11-13T10:20:35.366Z,20
2022-11-13T10:23:08.041Z,35
2022-11-13T10:25:38.678Z,30
2022-11-13T10:28:28.192Z,25
2022-11-13T10:30:44.446Z,24
2022-11-13T10:33:15.629Z,24
2022-11-13T10:35:46.716Z,32
2022-11-13T10:38:17.671Z,33
2022-11-13T10:40:48.329Z,34
2022-11-13T10:43:19.341Z,36
2022-11-13T10:45:52.009Z,29
2022-11-13T10:48:24.629Z,26
2022-11-13T10:53:33.228Z,28
2022-11-13T10:56:02.621Z,26
2022-11-13T10:58:33.731Z,27
2022-11-13T11:01:06.144Z,28
2022-11-13T11:03:36.945Z,25
2022-11-13T11:06:08.486Z,40
2022-11-13T11:08:40.184Z,32
2022-11-13T11:11:11.344Z,36
2022-11-13T11:13:42.342Z,24
2022-11-13T11:16:21.231Z,31
2022-11-13T11:18:51.851Z,25
2022-11-13T11:21:22.816Z,24
2022-11-13T11:23:56.119Z,28
2022-11-13T11:26:24.527Z,33
2022-11-13T11:28:55.503Z,21
2022-11-13T11:31:27.450Z,24
2022-11-13T11:33:59.222Z,20
2022-11-13T11:36:30.821Z,31
2022-11-13T11:39:01.707Z,30
2022-11-13T11:41:33.107Z,24
2022-11-13T11:44:04.423Z,21
2022-11-13T11:46:35.354Z,20
2022-11-13T11:49:07.169Z,24
2022-11-13T11:51:37.849Z,24
2022-11-13T11:54:08.591Z,32
2022-11-13T11:56:39.231Z,25
2022-11-13T11:59:10.232Z,20
2022-11-13T12:01:41.360Z,24
2022-11-13T12:04:14.934Z,20
2022-11-13T12:06:46.569Z,26
2022-11-13T12:09:19.184Z,32
2022-11-13T12:11:50.266Z,36
2022-11-13T12:14:21.119Z,26
2022-11-13T12:16:52.803Z,28
2022-11-13T12:19:26.380Z,32
2022-11-13T12:21:55.790Z,28
2022-11-13T12:24:25.814Z,20
2022-11-13T12:26:56.509Z,30
2022-11-13T12:29:28.856Z,28
2022-11-13T12:32:01.529Z,25
2022-11-13T12:34:34.482Z,32
2022-11-13T12:37:07.301Z,27
2022-11-13T12:39:40.667Z,25
2022-11-13T12:42:11.631Z,21
2022-11-13T12:44:43.744Z,32
2022-11-13T12:47:14.839Z,31
2022-11-13T12:49:45.819Z,28
2022-11-13T12:52:16.939Z,31
2022-11-13T12:54:47.591Z,30
2022-11-13T12:57:18.417Z,28
2022-11-13T12:59:48.987Z,25
2022-11-13T13:02:20.240Z,28
2022-11-13T13:04:51.348Z,27
2022-11-13T13:07:23.300Z,32
2022-11-13T13:09:54.240Z,32
2022-11-13T13:12:24.723Z,28
2022-11-13T13:14:54.881Z,32
2022-11-13T13:17:25.833Z,32
2022-11-13T13:20:00.221Z,32
2022-11-13T13:22:33.391Z,32
2022-11-13T13:25:04.589Z,28
2022-11-13T13:27:38.130Z,34
2022-11-13T13:30:11.521Z,32
2022-11-13T13:32:41.787Z,33
2022-11-13T13:35:15.079Z,32
2022-11-13T13:37:48.914Z,34
2022-11-13T13:40:25.830Z,48
2022-11-13T13:42:56.203Z,44
2022-11-13T13:45:26.522Z,36
2022-11-13T13:47:57.224Z,40
2022-11-13T13:50:31.730Z,36
2022-11-13T13:53:02.996Z,38
2022-11-13T13:55:36.025Z,32
2022-11-13T13:58:07.198Z,32
2022-11-13T14:00:53.471Z,36
2022-11-13T14:03:09.538Z,32
2022-11-13T14:05:40.692Z,36
2022-11-13T14:08:12.431Z,33
2022-11-13T14:10:43.864Z,35
2022-11-13T14:13:17.014Z,32
2022-11-13T14:15:48.397Z,32
2022-11-13T14:18:20.211Z,36
2022-11-13T14:20:51.491Z,36
2022-11-13T14:23:30.288Z,32
2022-11-13T14:26:01.415Z,28
2022-11-13T14:28:32.938Z,32
2022-11-13T14:31:07.439Z,48
2022-11-13T14:33:38.315Z,40
2022-11-13T14:36:11.438Z,38
2022-11-13T14:38:42.055Z,36
2022-11-13T14:41:14.925Z,36
2022-11-13T14:43:45.873Z,43
2022-11-13T14:46:17.007Z,36
2022-11-13T14:48:52.151Z,44
2022-11-13T14:51:23.381Z,39
2022-11-13T14:53:54.971Z,40
2022-11-13T14:56:27.482Z,37
2022-11-13T14:58:59.044Z,36
2022-11-13T15:01:30.015Z,38
2022-11-13T15:04:01.777Z,38
2022-11-13T15:06:33.967Z,39
2022-11-13T15:09:05.325Z,43
2022-11-13T15:11:38.050Z,43
2022-11-13T15:14:08.945Z,41
2022-11-13T15:16:41.892Z,35
2022-11-13T15:19:14.393Z,44
2022-11-13T15:21:55.033Z,47
2022-11-13T15:24:17.502Z,48
2022-11-13T15:26:48.387Z,48
2022-11-13T15:29:19.489Z,51
2022-11-13T15:31:50.626Z,53
2022-11-13T15:34:21.739Z,52
2022-11-13T15:36:55.070Z,55
2022-11-13T15:39:26.045Z,52
2022-11-13T15:41:57.501Z,56
2022-11-13T15:44:26.802Z,52
2022-11-13T15:46:58.590Z,56
2022-11-13T15:49:32.577Z,56
2022-11-13T15:52:05.779Z,57
2022-11-13T15:54:36.775Z,56
2022-11-13T15:57:07.998Z,56
2022-11-13T15:59:38.967Z,69
2022-11-13T16:02:10.336Z,52
2022-11-13T16:04:55.332Z,48
2022-11-13T16:07:14.265Z,60
2022-11-13T16:09:45.292Z,56
2022-11-13T16:12:16.815Z,53
2022-11-13T16:14:50.592Z,48
2022-11-13T16:17:21.633Z,48
2022-11-13T16:19:53.888Z,48
2022-11-13T16:22:25.001Z,52
2022-11-13T16:24:56.322Z,48
2022-11-13T16:27:29.159Z,49
2022-11-13T16:30:03.918Z,46
2022-11-13T16:32:32.309Z,49
2022-11-13T16:35:03.045Z,52
2022-11-13T16:37:39.043Z,48
2022-11-13T16:40:11.330Z,56
2022-11-13T16:42:43.623Z,52
2022-11-13T16:45:14.968Z,45
2022-11-13T16:47:45.804Z,50
2022-11-13T16:50:17.363Z,52
2022-11-13T16:52:48.283Z,49
2022-11-13T16:55:19.237Z,56
2022-11-13T16:57:50.625Z,52
2022-11-13T17:00:23.549Z,48
2022-11-13T17:02:55.696Z,52
2022-11-13T17:05:26.940Z,51
2022-11-13T17:07:59.452Z,56
2022-11-13T17:10:33.253Z,48
2022-11-13T17:13:03.486Z,52
2022-11-13T17:15:33.755Z,52
2022-11-13T17:18:04.992Z,56
2022-11-13T17:20:36.461Z,52
2022-11-13T17:23:09.031Z,55
2022-11-13T17:25:41.204Z,56
2022-11-13T17:28:12.504Z,56
2022-11-13T17:30:44.954Z,56
2022-11-13T17:33:17.430Z,64
2022-11-13T17:35:48.848Z,57
2022-11-13T17:38:20.960Z,56
2022-11-13T17:40:51.968Z,56
2022-11-13T17:43:23.370Z,57
2022-11-13T17:45:54.542Z,56
2022-11-13T17:48:26.203Z,56
2022-11-13T17:50:55.709Z,57
2022-11-13T17:53:27.661Z,56
2022-11-13T17:55:59.585Z,59
2022-11-13T17:58:31.179Z,65
2022-11-13T18:01:02.127Z,57
2022-11-13T18:03:33.601Z,60
2022-11-13T18:06:05.742Z,60
2022-11-13T18:08:36.786Z,59
2022-11-13T18:11:08.034Z,66
2022-11-13T18:13:40.967Z,62
2022-11-13T18:16:12.004Z,64
2022-11-13T18:18:47.142Z,62
2022-11-13T18:21:22.624Z,93
2022-11-13T18:23:50.264Z,102
2022-11-13T18:26:22.592Z,105
2022-11-13T18:29:00.326Z,96
2022-11-13T18:31:29.777Z,100
2022-11-13T18:34:00.722Z,93
2022-11-13T18:36:32.833Z,92
2022-11-13T18:39:03.738Z,85
2022-11-13T18:41:34.916Z,84
2022-11-13T18:44:06.698Z,91
2022-11-13T18:46:38.668Z,77
2022-11-13T18:49:11.087Z,66
2022-11-13T18:51:42.221Z,72
2022-11-13T18:54:15.712Z,75
2022-11-13T18:56:47.307Z,88
2022-11-13T18:59:18.642Z,89
2022-11-13T19:01:50.313Z,83
2022-11-13T19:04:23.119Z,94
2022-11-13T19:06:52.354Z,121
2022-11-13T19:09:23.632Z,140
2022-11-13T19:11:57.998Z,159
2022-11-13T19:14:31.743Z,122
2022-11-13T19:17:03.831Z,122
2022-11-13T19:19:38.593Z,73
2022-11-13T19:22:10.008Z,71
2022-11-13T19:24:41.565Z,60
2022-11-13T19:27:15.031Z,57
2022-11-13T19:29:48.577Z,56
2022-11-13T19:32:20.573Z,99
2022-11-13T19:34:51.519Z,84
2022-11-13T19:37:24.509Z,67
2022-11-13T19:39:56.187Z,63
2022-11-13T19:42:25.933Z,62
2022-11-13T19:44:57.027Z,60
2022-11-13T19:47:29.599Z,57
2022-11-13T19:50:01.104Z,56
2022-11-13T19:52:32.183Z,56
2022-11-13T19:55:01.827Z,54
2022-11-13T19:57:33.021Z,56
2022-11-13T20:00:04.646Z,56
2022-11-13T20:02:36.037Z,52
2022-11-13T20:05:07.666Z,57
2022-11-13T20:07:38.721Z,52
2022-11-13T20:10:11.291Z,49
2022-11-13T20:12:42.249Z,48
2022-11-13T20:15:16.530Z,53
2022-11-13T20:17:47.505Z,48
2022-11-13T20:20:18.989Z,56
2022-11-13T20:22:52.286Z,54
2022-11-13T20:25:22.941Z,53
2022-11-13T20:27:55.173Z,51
2022-11-13T20:30:25.140Z,56
2022-11-13T20:32:59.889Z,53
2022-11-13T20:35:31.662Z,52
2022-11-13T20:38:01.968Z,54
2022-11-13T20:40:34.916Z,52
2022-11-13T20:43:07.036Z,56
2022-11-13T20:45:41.213Z,52
2022-11-13T20:48:12.287Z,53
2022-11-13T20:50:44.522Z,53
2022-11-13T20:53:16.607Z,48
2022-11-13T20:55:49.173Z,52
2022-11-13T20:58:18.805Z,44
2022-11-13T21:00:48.650Z,51
2022-11-13T21:03:18.463Z,52
2022-11-13T21:05:50.552Z,48
2022-11-13T21:08:20.527Z,53
2022-11-13T21:10:51.997Z,51
2022-11-13T21:13:23.046Z,52
2022-11-13T21:15:54.299Z,50
2022-11-13T21:18:26.832Z,51
2022-11-13T21:20:57.466Z,48
2022-11-13T21:23:30.565Z,52
2022-11-13T21:26:00.111Z,52
2022-11-13T21:28:33.550Z,50
2022-11-13T21:31:03.593Z,52
2022-11-13T21:33:36.204Z,52
2022-11-13T21:36:07.649Z,48
2022-11-13T21:38:38.767Z,52
2022-11-13T21:41:10.683Z,52
2022-11-13T21:43:43.778Z,52
2022-11-13T21:46:16.364Z,48
2022-11-13T21:48:47.198Z,56
2022-11-13T21:51:17.957Z,56
2022-11-13T21:53:49.590Z,58
2022-11-13T21:56:22.269Z,56
2022-11-13T21:58:52.031Z,52
2022-11-13T22:01:23.884Z,49
2022-11-13T22:03:53.898Z,56
2022-11-13T22:06:24.111Z,52
2022-11-13T22:08:53.998Z,52
2022-11-13T22:11:30.279Z,53
2022-11-13T22:14:01.782Z,51
2022-11-13T22:16:34.002Z,56
2022-11-13T22:19:05.351Z,54
2022-11-13T22:21:37.062Z,56
2022-11-13T22:24:09.284Z,53
2022-11-13T22:26:40.281Z,55
2022-11-13T22:29:16.189Z,59
2022-11-13T22:31:47.776Z,58
2022-11-13T22:34:19.031Z,60
2022-11-13T22:36:50.372Z,56
2022-11-13T22:39:21.960Z,60
2022-11-13T22:41:53.629Z,56
2022-11-13T22:44:31.656Z,61
2022-11-13T22:46:55.933Z,56
2022-11-13T22:49:28.993Z,56
2022-11-13T22:52:00.210Z,59
2022-11-13T22:54:31.216Z,56
2022-11-13T22:57:02.398Z,54
2022-11-13T22:59:33.778Z,55
2022-11-13T23:04:35.026Z,56
2022-11-13T23:07:05.848Z,60
2022-11-13T23:09:36.090Z,60
2022-11-13T23:12:07.588Z,60
2022-11-13T23:14:37.956Z,58
2022-11-13T23:17:09.987Z,60
2022-11-13T23:19:41.709Z,56
2022-11-13T23:22:12.029Z,59
2022-11-13T23:24:43.143Z,56
2022-11-13T23:27:16.361Z,59
2022-11-13T23:29:50.211Z,55
2022-11-13T23:32:18.561Z,57
2022-11-13T23:34:59.751Z,56
2022-11-13T23:37:23.407Z,56
2022-11-13T23:39:53.940Z,56
2022-11-13T23:42:39.565Z,52
2022-11-13T23:47:30.043Z,51
2022-11-13T23:50:01.767Z,54
2022-11-13T23:52:32.485Z,56
2022-11-13T23:55:03.345Z,56
2022-11-13T23:57:33.767Z,57
